Time;durP1;ratioP1;P1;durP2;ratioP2;P2;SDS_P1;SDS_P2;PMS_P1;PMS_P2;Temp;Humidity;BMP_temperature;BMP_pressure;BME280_temperature;BME280_humidity;BME280_pressure;Samples;Min_cycle;Max_cycle;Signal;HPM_P1;HPM_P2
2024/01/13 00:01:48;;;;;;;2.60;1.48;;;;;;;19.58;43.62;97504.06;20773098;28;20045;-75
2024/01/13 00:12:08;;;;;;;1.73;1.40;;;;;;;19.50;43.70;97484.00;20751648;28;20128;-75
2024/01/13 00:22:27;;;;;;;1.88;1.63;;;;;;;19.45;43.57;97483.31;20788279;28;20056;-74
2024/01/13 00:32:47;;;;;;;1.90;1.40;;;;;;;19.42;43.64;97478.50;20755490;28;20053;-75
2024/01/13 00:43:06;;;;;;;1.55;1.30;;;;;;;19.39;43.48;97479.94;20745151;28;20050;-74
2024/01/13 00:53:25;;;;;;;1.85;1.50;;;;;;;19.34;43.46;97483.53;20770378;28;20061;-74
2024/01/13 01:03:46;;;;;;;1.55;1.30;;;;;;;19.31;43.40;97469.88;20737917;28;20046;-75
2024/01/13 01:14:05;;;;;;;1.60;1.40;;;;;;;19.28;43.29;97455.03;20777429;28;20053;-74
2024/01/13 01:24:24;;;;;;;2.03;1.30;;;;;;;19.21;43.46;97454.69;20803662;28;20058;-74
2024/01/13 01:34:43;;;;;;;1.70;1.30;;;;;;;19.21;43.43;97459.28;20730486;28;20061;-74
2024/01/13 01:45:03;;;;;;;1.80;1.30;;;;;;;19.12;43.51;97454.59;20768490;28;20422;-75
2024/01/13 01:55:23;;;;;;;1.20;0.93;;;;;;;19.10;43.49;97450.63;20728960;28;20100;-74
2024/01/13 02:05:43;;;;;;;1.00;0.90;;;;;;;19.01;43.37;97442.44;20800778;28;20081;-75
2024/01/13 02:16:05;;;;;;;1.75;1.27;;;;;;;18.98;43.19;97426.06;20764318;28;20132;-75
2024/01/13 02:26:28;;;;;;;1.40;1.02;;;;;;;18.95;43.51;97400.44;20739497;28;20561;-75
2024/01/13 02:36:48;;;;;;;1.20;0.93;;;;;;;18.89;43.23;97391.66;20783759;28;20050;-75
2024/01/13 02:47:08;;;;;;;1.33;1.00;;;;;;;18.84;43.37;97374.81;20745669;28;20064;-75
2024/01/13 02:57:27;;;;;;;1.00;0.90;;;;;;;18.81;43.26;97362.69;20747706;28;20414;-75
2024/01/13 03:07:46;;;;;;;1.15;1.05;;;;;;;18.78;43.17;97358.69;20811323;28;20080;-75
2024/01/13 03:18:06;;;;;;;0.98;0.93;;;;;;;18.73;43.19;97339.91;20773946;28;20038;-75
2024/01/13 03:28:26;;;;;;;0.85;0.80;;;;;;;18.71;43.19;97334.03;20812983;28;20053;-74
2024/01/13 03:38:45;;;;;;;3.42;1.00;;;;;;;18.69;43.16;97328.13;20791725;28;20049;-74
2024/01/13 03:49:05;;;;;;;0.80;0.80;;;;;;;18.65;43.25;97321.75;20791974;28;20072;-74
2024/01/13 03:59:24;;;;;;;0.80;0.70;;;;;;;18.62;43.32;97316.16;20789521;28;20057;-74
2024/01/13 04:09:43;;;;;;;1.30;0.80;;;;;;;18.59;43.25;97317.56;20753998;28;20061;-74
2024/01/13 04:20:04;;;;;;;1.00;0.90;;;;;;;18.54;43.29;97328.47;20764969;28;20056;-75
2024/01/13 04:30:23;;;;;;;0.70;0.70;;;;;;;18.49;43.25;97324.00;20799291;28;20064;-75
2024/01/13 04:40:47;;;;;;;0.75;0.75;;;;;;;18.51;43.36;97304.81;20792916;28;20053;-75
2024/01/13 04:51:06;;;;;;;0.70;0.70;;;;;;;18.45;43.27;97316.81;20745277;28;20081;-75
2024/01/13 05:01:26;;;;;;;0.88;0.80;;;;;;;18.42;43.25;97301.25;20732936;28;20050;-75
2024/01/13 05:11:46;;;;;;;0.70;0.70;;;;;;;18.42;43.24;97296.63;20722244;28;20111;-75
2024/01/13 05:22:06;;;;;;;0.90;0.70;;;;;;;18.36;43.27;97281.66;20753811;28;20061;-75
2024/01/13 05:32:25;;;;;;;1.00;1.00;;;;;;;18.31;43.17;97271.00;20781134;28;20042;-75
2024/01/13 05:42:45;;;;;;;0.75;0.68;;;;;;;18.29;43.29;97275.91;20726012;28;20057;-75
2024/01/13 05:53:05;;;;;;;0.85;0.73;;;;;;;18.24;43.18;97262.53;20806364;28;20409;-75
2024/01/13 06:03:25;;;;;;;0.70;0.70;;;;;;;18.24;43.15;97266.00;20753958;28;20096;-75
2024/01/13 06:13:44;;;;;;;0.60;0.60;;;;;;;18.24;43.00;97246.34;20712094;28;20065;-75
2024/01/13 06:24:04;;;;;;;0.80;0.80;;;;;;;18.20;42.97;97235.38;20703353;28;20058;-74
2024/01/13 06:34:24;;;;;;;1.00;0.68;;;;;;;18.18;42.98;97221.41;20709330;28;20485;-73
2024/01/13 06:44:43;;;;;;;0.70;0.70;;;;;;;18.15;42.92;97214.72;20743727;28;20108;-74
2024/01/13 06:55:04;;;;;;;0.60;0.60;;;;;;;18.13;43.08;97210.72;20025740;28;36472;-74
2024/01/13 07:05:23;;;;;;;0.60;0.60;;;;;;;18.09;43.02;97218.63;20755074;28;20063;-74
2024/01/13 07:15:43;;;;;;;0.60;0.60;;;;;;;18.10;43.26;97211.34;20777220;28;20414;-73
2024/01/13 07:26:03;;;;;;;0.70;0.70;;;;;;;18.13;43.74;97203.44;20750077;28;20465;-73
2024/01/13 07:36:22;;;;;;;1.75;0.70;;;;;;;18.18;43.98;97184.44;20750575;28;20100;-74
2024/01/13 07:46:42;;;;;;;0.70;0.60;;;;;;;18.28;43.79;97202.28;20787121;28;20049;-74
2024/01/13 07:57:02;;;;;;;1.38;0.98;;;;;;;18.34;43.74;97192.16;20742117;28;20058;-74
2024/01/13 08:07:25;;;;;;;1.23;0.50;;;;;;;18.38;43.60;97190.44;20739026;28;20061;-75
2024/01/13 08:17:44;;;;;;;0.70;0.70;;;;;;;18.46;43.34;97184.31;20794927;28;20049;-74
2024/01/13 08:28:04;;;;;;;0.55;0.55;;;;;;;18.58;43.27;97178.34;20773262;28;20061;-73
2024/01/13 08:38:24;;;;;;;0.50;0.43;;;;;;;18.71;42.95;97185.56;20764535;28;20139;-72
2024/01/13 08:48:44;;;;;;;0.50;0.50;;;;;;;18.75;42.62;97167.66;20741954;28;20064;-72
2024/01/13 08:59:03;;;;;;;0.50;0.50;;;;;;;18.83;42.71;97149.94;20757002;28;20046;-73
2024/01/13 09:09:23;;;;;;;0.50;0.50;;;;;;;18.95;42.45;97146.66;20760138;28;20070;-72
2024/01/13 09:19:43;;;;;;;1.38;0.80;;;;;;;19.04;43.41;97136.69;20781902;28;20054;-72
2024/01/13 09:30:03;;;;;;;1.00;0.60;;;;;;;19.08;43.93;97118.75;20780198;28;20076;-72
2024/01/13 09:40:23;;;;;;;2.38;0.60;;;;;;;19.17;43.90;97111.50;20738948;28;20046;-72
2024/01/13 09:50:45;;;;;;;7.07;1.98;;;;;;;19.30;44.70;97092.75;20719082;28;20503;-75
2024/01/13 10:01:06;;;;;;;2.97;1.17;;;;;;;19.37;44.35;97085.00;20756104;28;20112;-75
2024/01/13 10:11:26;;;;;;;12.02;1.73;;;;;;;19.49;43.86;97078.97;20735782;28;20563;-77
2024/01/13 10:21:45;;;;;;;4.97;1.45;;;;;;;19.60;43.81;97071.34;20781247;28;20050;-75
2024/01/13 10:32:08;;;;;;;300.42;90.93;;;;;;;19.67;46.46;97047.34;20775627;28;20061;-76
2024/01/13 10:42:34;;;;;;;256.10;125.60;;;;;;;19.93;45.27;97040.03;20727410;28;20100;-76
2024/01/13 10:53:12;;;;;;;96.05;49.60;;;;;;;19.64;33.15;97010.13;20760306;28;20058;-76
2024/01/13 11:03:33;;;;;;;39.92;19.55;;;;;;;18.53;29.08;96992.34;20762705;28;20386;-75
2024/01/13 11:14:00;;;;;;;51.72;29.08;;;;;;;19.42;35.05;96975.97;20704493;28;20395;-75
2024/01/13 11:24:20;;;;;;;47.17;28.20;;;;;;;19.75;37.84;96946.56;20718823;28;20079;-76
2024/01/13 11:34:39;;;;;;;13.38;8.80;;;;;;;17.06;30.01;96947.22;20727201;28;20062;-74
2024/01/13 11:45:02;;;;;;;19.85;12.20;;;;;;;17.89;35.38;96909.91;20721952;28;20076;-75
2024/01/13 11:55:22;;;;;;;14.77;8.35;;;;;;;19.25;34.87;96906.53;20718606;28;20050;-75
2024/01/13 12:05:41;;;;;;;12.65;7.80;;;;;;;19.58;34.72;96925.72;20741664;28;20061;-75
2024/01/13 12:16:07;;;;;;;12.10;7.68;;;;;;;19.67;35.12;96858.94;20713290;28;20053;-76
2024/01/13 12:26:28;;;;;;;13.05;7.75;;;;;;;19.80;36.03;96895.03;20687754;28;20367;-76
2024/01/13 12:36:47;;;;;;;10.75;7.25;;;;;;;19.88;36.54;96858.28;20681690;28;20050;-76
2024/01/13 12:47:11;;;;;;;12.23;7.25;;;;;;;19.93;37.44;96833.72;20681033;28;20125;-75
2024/01/13 12:57:31;;;;;;;12.00;6.82;;;;;;;20.02;37.68;96836.41;20694333;28;20050;-75
2024/01/13 13:07:51;;;;;;;9.55;6.60;;;;;;;20.10;37.81;96809.31;20758148;28;20057;-75
2024/01/13 13:18:11;;;;;;;9.80;5.93;;;;;;;20.15;38.06;96809.13;20767025;28;20057;-76
2024/01/13 13:28:30;;;;;;;8.40;4.80;;;;;;;20.30;36.77;96793.44;20752650;28;20478;-74
2024/01/13 13:38:50;;;;;;;6.43;4.75;;;;;;;20.31;34.20;96800.44;20793112;28;20103;-75
2024/01/13 13:49:09;;;;;;;3.80;3.50;;;;;;;19.11;24.98;96842.72;20765582;28;20068;-76
2024/01/13 13:59:29;;;;;;;3.47;2.63;;;;;;;19.55;29.07;96802.84;20779399;28;20057;-75
2024/01/13 14:09:48;;;;;;;3.75;2.72;;;;;;;19.89;30.14;96803.84;20770279;28;20160;-74
2024/01/13 14:20:08;;;;;;;2.85;2.40;;;;;;;20.01;31.66;96775.31;20807599;28;20475;-76
2024/01/13 14:30:28;;;;;;;3.28;2.20;;;;;;;20.02;32.74;96761.47;20794197;28;20049;-73
2024/01/13 14:40:48;;;;;;;2.72;2.20;;;;;;;20.10;33.25;96749.81;20784836;28;20461;-73
2024/01/13 14:51:07;;;;;;;3.35;2.35;;;;;;;20.24;34.07;96741.44;20768229;28;20057;-73
2024/01/13 15:01:26;;;;;;;5.38;2.40;;;;;;;20.28;35.17;96723.41;20786538;28;20046;-72
2024/01/13 15:11:46;;;;;;;3.25;2.20;;;;;;;20.33;36.07;96711.63;20794713;28;20110;-73
2024/01/13 15:22:05;;;;;;;4.63;2.08;;;;;;;20.32;36.50;96713.53;20765967;28;20410;-73
2024/01/13 15:32:25;;;;;;;3.33;1.83;;;;;;;20.37;37.33;96717.94;20779326;28;20422;-73
2024/01/13 15:42:44;;;;;;;4.60;1.90;;;;;;;20.35;38.27;96698.56;20729284;28;20535;-73
2024/01/13 15:53:03;;;;;;;5.88;2.17;;;;;;;20.41;38.85;96682.91;20722124;28;20155;-73
2024/01/13 16:03:23;;;;;;;5.75;3.90;;;;;;;20.41;33.81;96685.63;20769529;28;20457;-73
2024/01/13 16:13:56;;;;;;;5.32;2.25;;;;;;;20.27;36.57;96685.91;20704489;28;20047;-73
2024/01/13 16:24:18;;;;;;;3.83;1.98;;;;;;;20.27;37.45;96680.50;20735815;28;20056;-76
2024/01/13 16:34:38;;;;;;;3.28;2.22;;;;;;;20.22;38.27;96676.06;20744792;28;20104;-77
2024/01/13 16:44:57;;;;;;;3.80;2.40;;;;;;;20.22;38.62;96672.56;20675996;28;21171;-77
2024/01/13 16:55:17;;;;;;;2.45;1.80;;;;;;;20.22;38.73;96688.78;20664287;28;20457;-79
2024/01/13 17:05:36;;;;;;;4.03;1.80;;;;;;;20.18;38.99;96685.97;20684766;28;20077;-78
2024/01/13 17:15:56;;;;;;;2.92;1.70;;;;;;;20.15;39.18;96668.47;20675520;28;20402;-76
2024/01/13 17:26:16;;;;;;;3.67;1.60;;;;;;;20.13;39.30;96640.16;20717451;28;20108;-73
2024/01/13 17:36:35;;;;;;;5.30;1.70;;;;;;;20.09;38.78;96647.38;20725194;28;20058;-73
2024/01/13 17:46:54;;;;;;;4.82;1.85;;;;;;;20.01;41.79;96645.53;20701216;28;20070;-72
2024/01/13 17:57:14;;;;;;;4.05;1.77;;;;;;;19.93;43.29;96629.06;20712352;28;20045;-72
2024/01/13 18:07:33;;;;;;;14.88;8.48;;;;;;;20.04;44.32;96623.25;20726373;28;20081;-73
2024/01/13 18:17:54;;;;;;;9.40;6.50;;;;;;;20.06;43.79;96645.34;20741674;28;20049;-72
2024/01/13 18:28:14;;;;;;;7.43;5.13;;;;;;;20.03;43.59;96625.16;20775921;28;20049;-73
2024/01/13 18:38:34;;;;;;;8.80;4.30;;;;;;;20.02;43.38;96604.66;20756925;28;20120;-73
2024/01/13 18:48:53;;;;;;;15.13;4.50;;;;;;;19.95;45.52;96588.97;20723645;28;20068;-77
2024/01/13 18:59:12;;;;;;;7.97;4.40;;;;;;;19.99;45.89;96570.16;20716193;28;20130;-76
2024/01/13 19:09:36;;;;;;;11.05;4.20;;;;;;;19.93;45.78;96568.78;20703790;28;20433;-74
2024/01/13 19:19:57;;;;;;;12.23;5.05;;;;;;;19.86;45.87;96555.03;20747980;28;20049;-75
2024/01/13 19:30:16;;;;;;;10.13;4.95;;;;;;;19.82;45.71;96544.06;20755604;28;20061;-75
2024/01/13 19:40:36;;;;;;;7.70;4.28;;;;;;;19.75;45.93;96519.47;20716923;28;20061;-75
2024/01/13 19:50:55;;;;;;;10.18;4.32;;;;;;;19.70;45.67;96496.13;20682811;28;20062;-75
2024/01/13 20:01:17;;;;;;;6.78;4.10;;;;;;;19.67;45.61;96466.28;20710734;28;20495;-82
2024/01/13 20:11:38;;;;;;;7.25;4.05;;;;;;;19.62;45.70;96455.66;20710395;28;20049;-79
2024/01/13 20:21:58;;;;;;;5.82;3.45;;;;;;;19.56;45.62;96439.69;20759009;28;20414;-74
2024/01/13 20:32:18;;;;;;;5.50;3.33;;;;;;;19.53;45.46;96426.81;20742594;28;20131;-73
2024/01/13 20:42:40;;;;;;;4.88;3.22;;;;;;;19.52;45.11;96411.75;20730393;28;20064;-73
2024/01/13 20:52:59;;;;;;;5.68;3.58;;;;;;;19.52;45.10;96413.63;20730071;28;20053;-73
2024/01/13 21:03:19;;;;;;;8.43;3.13;;;;;;;19.43;45.24;96416.44;20750711;28;20112;-73
2024/01/13 21:13:39;;;;;;;6.10;2.90;;;;;;;19.45;44.22;96395.28;20792273;28;20108;-72
2024/01/13 21:23:59;;;;;;;5.30;3.38;;;;;;;19.44;44.16;96379.41;20747951;28;20058;-72
2024/01/13 21:34:18;;;;;;;6.35;3.17;;;;;;;19.46;44.03;96383.34;20775076;28;20053;-73
2024/01/13 21:44:38;;;;;;;6.78;2.70;;;;;;;19.41;44.24;96378.16;20768481;28;20066;-74
2024/01/13 21:54:58;;;;;;;4.47;2.92;;;;;;;19.43;44.18;96362.41;20737180;28;20457;-74
2024/01/13 22:05:17;;;;;;;3.22;2.60;;;;;;;19.40;44.01;96333.34;20777630;28;20072;-74
2024/01/13 22:15:39;;;;;;;5.80;2.75;;;;;;;19.35;44.55;96344.38;20727989;28;20050;-74
2024/01/13 22:25:59;;;;;;;4.68;2.70;;;;;;;19.32;44.90;96329.63;20718920;28;20453;-73
2024/01/13 22:36:19;;;;;;;5.57;2.70;;;;;;;19.37;44.99;96331.34;20735825;28;20049;-74
2024/01/13 22:46:38;;;;;;;3.67;2.70;;;;;;;19.37;44.96;96325.94;20729501;28;20061;-74
2024/01/13 22:56:58;;;;;;;4.85;2.55;;;;;;;19.42;44.81;96320.31;20719705;28;20053;-73
2024/01/13 23:07:17;;;;;;;3.20;2.00;;;;;;;19.41;44.50;96309.84;20787758;28;20068;-73
2024/01/13 23:17:37;;;;;;;3.50;2.13;;;;;;;19.38;44.34;96286.97;20791564;28;20052;-74
2024/01/13 23:27:56;;;;;;;4.22;2.38;;;;;;;19.30;44.49;96295.97;20769367;28;20054;-74
2024/01/13 23:38:16;;;;;;;2.85;2.10;;;;;;;19.28;44.36;96274.69;20798241;28;20042;-73
2024/01/13 23:48:38;;;;;;;3.22;2.20;;;;;;;19.22;44.10;96286.06;20770817;28;20124;-72
2024/01/13 23:58:58;;;;;;;3.10;2.28;;;;;;;19.19;44.09;96276.72;20780348;28;20068;-72
